sensor_id;sensor_type;location;lat;lon;timestamp;temperature;humidity
22069;DHT22;13887;57.196;-2.100;2023-12-22T00:02:23;5.99;75.09
22069;DHT22;13887;57.196;-2.100;2023-12-22T00:04:53;5.98;75.24
22069;DHT22;13887;57.196;-2.100;2023-12-22T00:07:20;6.00;75.04
22069;DHT22;13887;57.196;-2.100;2023-12-22T00:09:47;6.00;75.25
22069;DHT22;13887;57.196;-2.100;2023-12-22T00:12:15;5.96;75.56
22069;DHT22;13887;57.196;-2.100;2023-12-22T00:14:42;5.97;75.72
22069;DHT22;13887;57.196;-2.100;2023-12-22T00:17:09;6.00;75.75
22069;DHT22;13887;57.196;-2.100;2023-12-22T00:19:36;5.93;75.84
22069;DHT22;13887;57.196;-2.100;2023-12-22T00:22:04;5.92;76.12
22069;DHT22;13887;57.196;-2.100;2023-12-22T00:24:31;5.96;75.96
22069;DHT22;13887;57.196;-2.100;2023-12-22T00:27:01;5.97;75.97
22069;DHT22;13887;57.196;-2.100;2023-12-22T00:29:30;6.01;75.79
22069;DHT22;13887;57.196;-2.100;2023-12-22T00:31:57;6.00;76.00
22069;DHT22;13887;57.196;-2.100;2023-12-22T00:34:24;5.98;76.06
22069;DHT22;13887;57.196;-2.100;2023-12-22T00:36:51;5.90;76.35
22069;DHT22;13887;57.196;-2.100;2023-12-22T00:39:19;5.92;76.27
22069;DHT22;13887;57.196;-2.100;2023-12-22T00:41:46;5.93;76.34
22069;DHT22;13887;57.196;-2.100;2023-12-22T00:44:13;5.91;76.41
22069;DHT22;13887;57.196;-2.100;2023-12-22T00:46:40;5.95;76.31
22069;DHT22;13887;57.196;-2.100;2023-12-22T00:49:08;5.93;76.60
22069;DHT22;13887;57.196;-2.100;2023-12-22T00:51:35;5.94;76.57
22069;DHT22;13887;57.196;-2.100;2023-12-22T00:54:02;5.94;76.63
22069;DHT22;13887;57.196;-2.100;2023-12-22T00:56:29;5.96;76.55
22069;DHT22;13887;57.196;-2.100;2023-12-22T00:58:56;5.94;76.70
22069;DHT22;13887;57.196;-2.100;2023-12-22T01:01:36;5.97;76.68
22069;DHT22;13887;57.196;-2.100;2023-12-22T01:04:04;5.95;76.57
22069;DHT22;13887;57.196;-2.100;2023-12-22T01:06:31;5.95;76.67
22069;DHT22;13887;57.196;-2.100;2023-12-22T01:08:59;5.95;76.77
22069;DHT22;13887;57.196;-2.100;2023-12-22T01:11:26;5.98;76.71
22069;DHT22;13887;57.196;-2.100;2023-12-22T01:13:53;6.00;76.64
22069;DHT22;13887;57.196;-2.100;2023-12-22T01:16:21;6.00;76.75
22069;DHT22;13887;57.196;-2.100;2023-12-22T01:18:49;6.01;76.65
22069;DHT22;13887;57.196;-2.100;2023-12-22T01:21:18;5.96;76.92
22069;DHT22;13887;57.196;-2.100;2023-12-22T01:23:45;5.99;77.04
22069;DHT22;13887;57.196;-2.100;2023-12-22T01:26:12;5.97;76.98
22069;DHT22;13887;57.196;-2.100;2023-12-22T01:28:40;5.99;77.17
22069;DHT22;13887;57.196;-2.100;2023-12-22T01:31:07;5.99;77.08
22069;DHT22;13887;57.196;-2.100;2023-12-22T01:33:34;5.99;77.14
22069;DHT22;13887;57.196;-2.100;2023-12-22T01:36:02;6.04;77.17
22069;DHT22;13887;57.196;-2.100;2023-12-22T01:38:29;6.02;77.22
22069;DHT22;13887;57.196;-2.100;2023-12-22T01:40:57;5.97;77.55
22069;DHT22;13887;57.196;-2.100;2023-12-22T01:43:24;5.99;77.60
22069;DHT22;13887;57.196;-2.100;2023-12-22T01:45:55;6.01;77.55
22069;DHT22;13887;57.196;-2.100;2023-12-22T01:48:24;6.04;77.55
22069;DHT22;13887;57.196;-2.100;2023-12-22T01:50:53;6.00;77.70
22069;DHT22;13887;57.196;-2.100;2023-12-22T01:53:21;5.98;77.85
22069;DHT22;13887;57.196;-2.100;2023-12-22T01:55:50;5.96;78.02
22069;DHT22;13887;57.196;-2.100;2023-12-22T01:58:19;5.96;78.21
22069;DHT22;13887;57.196;-2.100;2023-12-22T02:00:47;5.99;78.11
22069;DHT22;13887;57.196;-2.100;2023-12-22T02:03:14;5.97;78.34
22069;DHT22;13887;57.196;-2.100;2023-12-22T02:05:46;5.99;78.18
22069;DHT22;13887;57.196;-2.100;2023-12-22T02:08:15;6.02;78.25
22069;DHT22;13887;57.196;-2.100;2023-12-22T02:10:45;5.98;78.55
22069;DHT22;13887;57.196;-2.100;2023-12-22T02:13:12;5.97;78.54
22069;DHT22;13887;57.196;-2.100;2023-12-22T02:15:40;6.00;78.53
22069;DHT22;13887;57.196;-2.100;2023-12-22T02:18:16;6.04;78.37
22069;DHT22;13887;57.196;-2.100;2023-12-22T02:20:44;6.04;78.52
22069;DHT22;13887;57.196;-2.100;2023-12-22T02:23:11;6.02;78.59
22069;DHT22;13887;57.196;-2.100;2023-12-22T02:25:38;6.05;78.53
22069;DHT22;13887;57.196;-2.100;2023-12-22T02:28:08;6.06;78.68
22069;DHT22;13887;57.196;-2.100;2023-12-22T02:30:53;6.08;78.56
22069;DHT22;13887;57.196;-2.100;2023-12-22T02:33:23;6.07;78.60
22069;DHT22;13887;57.196;-2.100;2023-12-22T02:35:52;6.06;78.67
22069;DHT22;13887;57.196;-2.100;2023-12-22T02:38:21;6.04;78.79
22069;DHT22;13887;57.196;-2.100;2023-12-22T02:40:49;6.01;78.95
22069;DHT22;13887;57.196;-2.100;2023-12-22T02:43:16;6.05;78.99
22069;DHT22;13887;57.196;-2.100;2023-12-22T02:45:43;6.04;79.01
22069;DHT22;13887;57.196;-2.100;2023-12-22T02:48:10;6.04;79.13
22069;DHT22;13887;57.196;-2.100;2023-12-22T02:50:38;6.05;79.09
22069;DHT22;13887;57.196;-2.100;2023-12-22T02:53:05;6.08;78.95
22069;DHT22;13887;57.196;-2.100;2023-12-22T02:55:32;6.07;79.09
22069;DHT22;13887;57.196;-2.100;2023-12-22T02:58:00;6.06;79.18
22069;DHT22;13887;57.196;-2.100;2023-12-22T03:00:27;6.08;79.31
22069;DHT22;13887;57.196;-2.100;2023-12-22T03:02:55;6.08;79.27
22069;DHT22;13887;57.196;-2.100;2023-12-22T03:05:22;6.07;79.33
22069;DHT22;13887;57.196;-2.100;2023-12-22T03:07:49;6.01;79.73
22069;DHT22;13887;57.196;-2.100;2023-12-22T03:10:17;6.01;79.88
22069;DHT22;13887;57.196;-2.100;2023-12-22T03:12:44;6.00;79.89
22069;DHT22;13887;57.196;-2.100;2023-12-22T03:15:11;6.00;79.85
22069;DHT22;13887;57.196;-2.100;2023-12-22T03:17:39;6.00;80.11
22069;DHT22;13887;57.196;-2.100;2023-12-22T03:20:06;6.00;79.94
22069;DHT22;13887;57.196;-2.100;2023-12-22T03:22:34;5.96;80.29
22069;DHT22;13887;57.196;-2.100;2023-12-22T03:25:01;6.01;80.18
22069;DHT22;13887;57.196;-2.100;2023-12-22T03:27:30;5.97;80.33
22069;DHT22;13887;57.196;-2.100;2023-12-22T03:29:57;5.99;80.22
22069;DHT22;13887;57.196;-2.100;2023-12-22T03:32:25;5.97;80.44
22069;DHT22;13887;57.196;-2.100;2023-12-22T03:34:52;5.95;80.50
22069;DHT22;13887;57.196;-2.100;2023-12-22T03:37:19;5.99;80.56
22069;DHT22;13887;57.196;-2.100;2023-12-22T03:39:47;5.98;80.45
22069;DHT22;13887;57.196;-2.100;2023-12-22T03:42:14;5.96;80.57
22069;DHT22;13887;57.196;-2.100;2023-12-22T03:44:41;5.98;80.55
22069;DHT22;13887;57.196;-2.100;2023-12-22T03:47:08;5.97;80.65
22069;DHT22;13887;57.196;-2.100;2023-12-22T03:49:35;5.97;80.66
22069;DHT22;13887;57.196;-2.100;2023-12-22T03:52:03;5.95;80.78
22069;DHT22;13887;57.196;-2.100;2023-12-22T03:54:30;5.98;80.81
22069;DHT22;13887;57.196;-2.100;2023-12-22T03:56:57;5.94;81.04
22069;DHT22;13887;57.196;-2.100;2023-12-22T03:59:24;5.94;81.02
22069;DHT22;13887;57.196;-2.100;2023-12-22T04:01:52;5.92;81.17
22069;DHT22;13887;57.196;-2.100;2023-12-22T04:04:20;5.92;81.12
22069;DHT22;13887;57.196;-2.100;2023-12-22T04:06:49;5.84;81.38
22069;DHT22;13887;57.196;-2.100;2023-12-22T04:09:17;5.91;81.14
22069;DHT22;13887;57.196;-2.100;2023-12-22T04:11:44;5.90;81.18
22069;DHT22;13887;57.196;-2.100;2023-12-22T04:14:11;5.92;81.21
22069;DHT22;13887;57.196;-2.100;2023-12-22T04:16:39;5.95;81.02
22069;DHT22;13887;57.196;-2.100;2023-12-22T04:19:06;5.87;81.39
22069;DHT22;13887;57.196;-2.100;2023-12-22T04:21:38;5.90;81.37
22069;DHT22;13887;57.196;-2.100;2023-12-22T04:24:05;5.87;81.54
22069;DHT22;13887;57.196;-2.100;2023-12-22T04:26:33;5.94;81.31
22069;DHT22;13887;57.196;-2.100;2023-12-22T04:29:00;5.91;81.37
22069;DHT22;13887;57.196;-2.100;2023-12-22T04:31:27;5.93;81.32
22069;DHT22;13887;57.196;-2.100;2023-12-22T04:33:55;5.95;81.16
22069;DHT22;13887;57.196;-2.100;2023-12-22T04:36:22;5.96;81.04
22069;DHT22;13887;57.196;-2.100;2023-12-22T04:38:50;5.97;81.09
22069;DHT22;13887;57.196;-2.100;2023-12-22T04:41:17;5.95;81.23
22069;DHT22;13887;57.196;-2.100;2023-12-22T04:43:44;5.97;81.22
22069;DHT22;13887;57.196;-2.100;2023-12-22T04:46:12;5.99;81.16
22069;DHT22;13887;57.196;-2.100;2023-12-22T04:48:39;5.99;81.11
22069;DHT22;13887;57.196;-2.100;2023-12-22T04:51:06;5.97;81.25
22069;DHT22;13887;57.196;-2.100;2023-12-22T04:53:34;5.96;81.36
22069;DHT22;13887;57.196;-2.100;2023-12-22T04:56:01;5.97;81.36
22069;DHT22;13887;57.196;-2.100;2023-12-22T04:58:28;5.95;81.43
22069;DHT22;13887;57.196;-2.100;2023-12-22T05:00:56;5.95;81.49
22069;DHT22;13887;57.196;-2.100;2023-12-22T05:03:23;5.95;81.55
22069;DHT22;13887;57.196;-2.100;2023-12-22T05:05:50;5.95;81.61
22069;DHT22;13887;57.196;-2.100;2023-12-22T05:08:18;5.92;81.72
22069;DHT22;13887;57.196;-2.100;2023-12-22T05:10:45;5.93;81.64
22069;DHT22;13887;57.196;-2.100;2023-12-22T05:13:12;5.91;81.94
22069;DHT22;13887;57.196;-2.100;2023-12-22T05:15:40;5.91;81.84
22069;DHT22;13887;57.196;-2.100;2023-12-22T05:18:07;5.92;81.92
22069;DHT22;13887;57.196;-2.100;2023-12-22T05:20:35;5.84;82.17
22069;DHT22;13887;57.196;-2.100;2023-12-22T05:23:02;5.86;82.19
22069;DHT22;13887;57.196;-2.100;2023-12-22T05:25:29;5.86;82.15
22069;DHT22;13887;57.196;-2.100;2023-12-22T05:27:57;5.87;82.08
22069;DHT22;13887;57.196;-2.100;2023-12-22T05:30:24;5.90;82.09
22069;DHT22;13887;57.196;-2.100;2023-12-22T05:32:52;5.90;82.01
22069;DHT22;13887;57.196;-2.100;2023-12-22T05:35:19;5.90;82.09
22069;DHT22;13887;57.196;-2.100;2023-12-22T05:37:47;5.85;82.24
22069;DHT22;13887;57.196;-2.100;2023-12-22T05:40:16;5.87;82.16
22069;DHT22;13887;57.196;-2.100;2023-12-22T05:42:43;5.89;82.04
22069;DHT22;13887;57.196;-2.100;2023-12-22T05:45:10;5.91;81.99
22069;DHT22;13887;57.196;-2.100;2023-12-22T05:47:38;5.90;82.09
22069;DHT22;13887;57.196;-2.100;2023-12-22T05:50:06;5.90;82.16
22069;DHT22;13887;57.196;-2.100;2023-12-22T05:52:33;5.87;82.13
22069;DHT22;13887;57.196;-2.100;2023-12-22T05:55:01;5.87;82.30
22069;DHT22;13887;57.196;-2.100;2023-12-22T05:57:28;5.90;82.20
22069;DHT22;13887;57.196;-2.100;2023-12-22T05:59:55;5.90;82.12
22069;DHT22;13887;57.196;-2.100;2023-12-22T06:02:22;5.91;82.23
22069;DHT22;13887;57.196;-2.100;2023-12-22T06:04:50;5.89;82.29
22069;DHT22;13887;57.196;-2.100;2023-12-22T06:07:17;5.92;82.20
22069;DHT22;13887;57.196;-2.100;2023-12-22T06:09:46;5.91;82.23
22069;DHT22;13887;57.196;-2.100;2023-12-22T06:12:13;5.92;82.25
22069;DHT22;13887;57.196;-2.100;2023-12-22T06:14:41;5.90;82.42
22069;DHT22;13887;57.196;-2.100;2023-12-22T06:17:08;5.91;82.35
22069;DHT22;13887;57.196;-2.100;2023-12-22T06:19:36;5.91;82.33
22069;DHT22;13887;57.196;-2.100;2023-12-22T06:22:03;5.89;82.42
22069;DHT22;13887;57.196;-2.100;2023-12-22T06:24:31;5.89;82.44
22069;DHT22;13887;57.196;-2.100;2023-12-22T06:26:58;5.90;82.44
22069;DHT22;13887;57.196;-2.100;2023-12-22T06:29:25;5.91;82.42
22069;DHT22;13887;57.196;-2.100;2023-12-22T06:31:57;5.92;82.33
22069;DHT22;13887;57.196;-2.100;2023-12-22T06:34:24;5.92;82.37
22069;DHT22;13887;57.196;-2.100;2023-12-22T06:36:52;5.92;82.36
22069;DHT22;13887;57.196;-2.100;2023-12-22T06:39:20;5.89;82.69
22069;DHT22;13887;57.196;-2.100;2023-12-22T06:41:49;5.89;82.62
22069;DHT22;13887;57.196;-2.100;2023-12-22T06:44:17;5.86;82.71
22069;DHT22;13887;57.196;-2.100;2023-12-22T06:46:44;5.90;82.56
22069;DHT22;13887;57.196;-2.100;2023-12-22T06:49:12;5.87;82.70
22069;DHT22;13887;57.196;-2.100;2023-12-22T06:51:39;5.89;82.65
22069;DHT22;13887;57.196;-2.100;2023-12-22T06:54:06;5.89;82.69
22069;DHT22;13887;57.196;-2.100;2023-12-22T06:56:35;5.90;82.62
22069;DHT22;13887;57.196;-2.100;2023-12-22T06:59:03;5.89;82.60
22069;DHT22;13887;57.196;-2.100;2023-12-22T07:01:32;5.86;82.81
22069;DHT22;13887;57.196;-2.100;2023-12-22T07:04:02;5.86;82.82
22069;DHT22;13887;57.196;-2.100;2023-12-22T07:06:31;5.83;82.97
22069;DHT22;13887;57.196;-2.100;2023-12-22T07:11:51;5.79;83.26
22069;DHT22;13887;57.196;-2.100;2023-12-22T07:14:19;5.81;83.20
22069;DHT22;13887;57.196;-2.100;2023-12-22T07:16:48;5.79;83.31
22069;DHT22;13887;57.196;-2.100;2023-12-22T07:19:15;5.80;83.26
22069;DHT22;13887;57.196;-2.100;2023-12-22T07:21:43;5.79;83.39
22069;DHT22;13887;57.196;-2.100;2023-12-22T07:24:13;5.79;83.36
22069;DHT22;13887;57.196;-2.100;2023-12-22T07:26:42;5.72;83.48
22069;DHT22;13887;57.196;-2.100;2023-12-22T07:29:11;5.74;83.43
22069;DHT22;13887;57.196;-2.100;2023-12-22T07:31:39;5.69;83.68
22069;DHT22;13887;57.196;-2.100;2023-12-22T07:34:07;5.72;83.38
22069;DHT22;13887;57.196;-2.100;2023-12-22T07:36:36;5.70;83.52
22069;DHT22;13887;57.196;-2.100;2023-12-22T07:39:14;5.75;83.28
22069;DHT22;13887;57.196;-2.100;2023-12-22T07:41:43;5.70;83.50
22069;DHT22;13887;57.196;-2.100;2023-12-22T07:44:10;5.68;83.62
22069;DHT22;13887;57.196;-2.100;2023-12-22T07:46:38;5.75;83.36
22069;DHT22;13887;57.196;-2.100;2023-12-22T07:49:07;5.72;83.36
22069;DHT22;13887;57.196;-2.100;2023-12-22T07:51:34;5.77;83.20
22069;DHT22;13887;57.196;-2.100;2023-12-22T07:54:01;5.75;83.29
22069;DHT22;13887;57.196;-2.100;2023-12-22T07:56:29;5.72;83.33
22069;DHT22;13887;57.196;-2.100;2023-12-22T07:58:56;5.76;83.17
22069;DHT22;13887;57.196;-2.100;2023-12-22T08:01:43;5.75;83.25
22069;DHT22;13887;57.196;-2.100;2023-12-22T08:04:10;5.76;83.23
22069;DHT22;13887;57.196;-2.100;2023-12-22T08:06:38;5.71;83.50
22069;DHT22;13887;57.196;-2.100;2023-12-22T08:09:05;5.67;83.76
22069;DHT22;13887;57.196;-2.100;2023-12-22T08:11:33;5.72;83.55
22069;DHT22;13887;57.196;-2.100;2023-12-22T08:14:00;5.71;83.52
22069;DHT22;13887;57.196;-2.100;2023-12-22T08:16:27;5.74;83.39
22069;DHT22;13887;57.196;-2.100;2023-12-22T08:18:54;5.71;83.55
22069;DHT22;13887;57.196;-2.100;2023-12-22T08:21:22;5.71;83.65
22069;DHT22;13887;57.196;-2.100;2023-12-22T08:24:04;5.71;83.63
22069;DHT22;13887;57.196;-2.100;2023-12-22T08:26:31;5.72;83.55
22069;DHT22;13887;57.196;-2.100;2023-12-22T08:28:59;5.75;83.52
22069;DHT22;13887;57.196;-2.100;2023-12-22T08:31:26;5.75;83.51
22069;DHT22;13887;57.196;-2.100;2023-12-22T08:33:54;5.72;83.65
22069;DHT22;13887;57.196;-2.100;2023-12-22T08:36:21;5.71;83.65
22069;DHT22;13887;57.196;-2.100;2023-12-22T08:38:48;5.71;83.78
22069;DHT22;13887;57.196;-2.100;2023-12-22T08:41:16;5.68;83.84
22069;DHT22;13887;57.196;-2.100;2023-12-22T08:43:44;5.76;83.52
22069;DHT22;13887;57.196;-2.100;2023-12-22T08:46:11;5.71;83.71
22069;DHT22;13887;57.196;-2.100;2023-12-22T08:48:39;5.67;84.09
22069;DHT22;13887;57.196;-2.100;2023-12-22T08:51:07;5.64;84.30
22069;DHT22;13887;57.196;-2.100;2023-12-22T08:53:34;5.65;84.23
22069;DHT22;13887;57.196;-2.100;2023-12-22T08:56:04;5.71;83.96
22069;DHT22;13887;57.196;-2.100;2023-12-22T08:58:31;5.75;83.72
22069;DHT22;13887;57.196;-2.100;2023-12-22T09:00:58;5.75;83.75
22069;DHT22;13887;57.196;-2.100;2023-12-22T09:03:25;5.75;83.84
22069;DHT22;13887;57.196;-2.100;2023-12-22T09:05:54;5.74;83.90
22069;DHT22;13887;57.196;-2.100;2023-12-22T09:08:21;5.75;83.90
22069;DHT22;13887;57.196;-2.100;2023-12-22T09:10:49;5.72;83.98
22069;DHT22;13887;57.196;-2.100;2023-12-22T09:13:17;5.72;84.01
22069;DHT22;13887;57.196;-2.100;2023-12-22T09:15:44;5.75;83.93
22069;DHT22;13887;57.196;-2.100;2023-12-22T09:18:13;5.75;84.07
22069;DHT22;13887;57.196;-2.100;2023-12-22T09:20:41;5.72;84.17
22069;DHT22;13887;57.196;-2.100;2023-12-22T09:23:08;5.75;84.00
22069;DHT22;13887;57.196;-2.100;2023-12-22T09:25:37;5.79;83.96
22069;DHT22;13887;57.196;-2.100;2023-12-22T09:28:04;5.77;83.97
22069;DHT22;13887;57.196;-2.100;2023-12-22T09:30:32;5.77;84.12
22069;DHT22;13887;57.196;-2.100;2023-12-22T09:32:59;5.78;84.00
22069;DHT22;13887;57.196;-2.100;2023-12-22T09:35:27;5.78;84.03
22069;DHT22;13887;57.196;-2.100;2023-12-22T09:37:54;5.77;84.07
22069;DHT22;13887;57.196;-2.100;2023-12-22T09:40:22;5.78;84.10
22069;DHT22;13887;57.196;-2.100;2023-12-22T09:42:50;5.77;84.30
22069;DHT22;13887;57.196;-2.100;2023-12-22T09:45:21;5.74;84.55
22069;DHT22;13887;57.196;-2.100;2023-12-22T09:47:50;5.75;84.68
22069;DHT22;13887;57.196;-2.100;2023-12-22T09:50:19;5.74;84.75
22069;DHT22;13887;57.196;-2.100;2023-12-22T09:52:47;5.77;84.71
22069;DHT22;13887;57.196;-2.100;2023-12-22T09:55:14;5.79;84.67
22069;DHT22;13887;57.196;-2.100;2023-12-22T09:57:42;5.79;84.61
22069;DHT22;13887;57.196;-2.100;2023-12-22T10:00:10;5.82;84.51
22069;DHT22;13887;57.196;-2.100;2023-12-22T10:02:40;5.77;84.71
22069;DHT22;13887;57.196;-2.100;2023-12-22T10:05:09;5.81;84.64
22069;DHT22;13887;57.196;-2.100;2023-12-22T10:07:37;5.81;84.62
22069;DHT22;13887;57.196;-2.100;2023-12-22T10:10:07;5.83;84.62
22069;DHT22;13887;57.196;-2.100;2023-12-22T10:12:36;5.83;84.52
22069;DHT22;13887;57.196;-2.100;2023-12-22T10:15:05;5.84;84.59
22069;DHT22;13887;57.196;-2.100;2023-12-22T10:17:33;5.84;84.55
22069;DHT22;13887;57.196;-2.100;2023-12-22T10:20:01;5.83;84.54
22069;DHT22;13887;57.196;-2.100;2023-12-22T10:22:30;5.84;84.49
22069;DHT22;13887;57.196;-2.100;2023-12-22T10:24:57;5.82;84.65
22069;DHT22;13887;57.196;-2.100;2023-12-22T10:27:25;5.81;84.64
22069;DHT22;13887;57.196;-2.100;2023-12-22T10:29:56;5.85;84.58
22069;DHT22;13887;57.196;-2.100;2023-12-22T10:32:24;5.86;84.42
22069;DHT22;13887;57.196;-2.100;2023-12-22T10:34:51;5.86;84.48
22069;DHT22;13887;57.196;-2.100;2023-12-22T10:37:20;5.87;84.25
22069;DHT22;13887;57.196;-2.100;2023-12-22T10:39:52;5.86;84.27
22069;DHT22;13887;57.196;-2.100;2023-12-22T10:42:20;5.85;84.31
22069;DHT22;13887;57.196;-2.100;2023-12-22T10:44:48;5.86;84.19
22069;DHT22;13887;57.196;-2.100;2023-12-22T10:47:19;5.87;84.13
22069;DHT22;13887;57.196;-2.100;2023-12-22T10:49:49;5.86;84.15
22069;DHT22;13887;57.196;-2.100;2023-12-22T10:52:17;5.86;84.05
22069;DHT22;13887;57.196;-2.100;2023-12-22T10:54:48;5.89;84.07
22069;DHT22;13887;57.196;-2.100;2023-12-22T10:57:19;5.90;83.85
22069;DHT22;13887;57.196;-2.100;2023-12-22T10:59:47;5.90;83.85
22069;DHT22;13887;57.196;-2.100;2023-12-22T11:02:27;5.90;83.81
22069;DHT22;13887;57.196;-2.100;2023-12-22T11:05:04;5.92;83.68
22069;DHT22;13887;57.196;-2.100;2023-12-22T11:07:36;5.87;83.65
22069;DHT22;13887;57.196;-2.100;2023-12-22T11:10:06;5.87;83.57
22069;DHT22;13887;57.196;-2.100;2023-12-22T11:12:35;5.87;83.42
22069;DHT22;13887;57.196;-2.100;2023-12-22T11:15:04;5.90;83.29
22069;DHT22;13887;57.196;-2.100;2023-12-22T11:17:35;5.87;83.26
22069;DHT22;13887;57.196;-2.100;2023-12-22T11:20:09;5.85;83.42
22069;DHT22;13887;57.196;-2.100;2023-12-22T11:22:38;5.84;83.54
22069;DHT22;13887;57.196;-2.100;2023-12-22T11:25:07;5.87;83.58
22069;DHT22;13887;57.196;-2.100;2023-12-22T11:27:38;5.90;83.35
22069;DHT22;13887;57.196;-2.100;2023-12-22T11:30:06;5.87;83.69
22069;DHT22;13887;57.196;-2.100;2023-12-22T11:32:37;5.85;83.75
22069;DHT22;13887;57.196;-2.100;2023-12-22T11:35:07;5.85;83.72
22069;DHT22;13887;57.196;-2.100;2023-12-22T11:37:39;5.86;83.84
22069;DHT22;13887;57.196;-2.100;2023-12-22T11:40:07;5.91;83.82
22069;DHT22;13887;57.196;-2.100;2023-12-22T11:42:42;5.91;83.86
22069;DHT22;13887;57.196;-2.100;2023-12-22T11:45:14;5.90;84.10
22069;DHT22;13887;57.196;-2.100;2023-12-22T11:47:43;5.87;84.22
22069;DHT22;13887;57.196;-2.100;2023-12-22T11:50:12;5.87;84.29
22069;DHT22;13887;57.196;-2.100;2023-12-22T11:52:39;5.90;84.24
22069;DHT22;13887;57.196;-2.100;2023-12-22T11:55:07;5.90;84.47
22069;DHT22;13887;57.196;-2.100;2023-12-22T11:57:38;5.85;84.40
22069;DHT22;13887;57.196;-2.100;2023-12-22T12:00:08;5.84;84.40
22069;DHT22;13887;57.196;-2.100;2023-12-22T12:02:40;5.82;84.65
22069;DHT22;13887;57.196;-2.100;2023-12-22T12:05:09;5.77;84.92
22069;DHT22;13887;57.196;-2.100;2023-12-22T12:07:43;5.84;84.57
22069;DHT22;13887;57.196;-2.100;2023-12-22T12:10:13;5.79;84.81
22069;DHT22;13887;57.196;-2.100;2023-12-22T12:12:41;5.77;85.03
22069;DHT22;13887;57.196;-2.100;2023-12-22T12:15:15;5.84;84.71
22069;DHT22;13887;57.196;-2.100;2023-12-22T12:17:44;5.91;84.68
22069;DHT22;13887;57.196;-2.100;2023-12-22T12:20:11;5.87;84.89
22069;DHT22;13887;57.196;-2.100;2023-12-22T12:22:39;5.82;85.22
22069;DHT22;13887;57.196;-2.100;2023-12-22T12:25:08;5.69;85.24
22069;DHT22;13887;57.196;-2.100;2023-12-22T12:28:03;5.68;85.28
22069;DHT22;13887;57.196;-2.100;2023-12-22T12:30:32;5.65;85.17
22069;DHT22;13887;57.196;-2.100;2023-12-22T12:33:07;5.61;85.34
22069;DHT22;13887;57.196;-2.100;2023-12-22T12:35:37;5.69;85.00
22069;DHT22;13887;57.196;-2.100;2023-12-22T12:38:11;5.64;85.28
22069;DHT22;13887;57.196;-2.100;2023-12-22T12:40:39;5.65;85.04
22069;DHT22;13887;57.196;-2.100;2023-12-22T12:43:08;5.18;87.57
22069;DHT22;13887;57.196;-2.100;2023-12-22T12:45:35;5.46;86.22
22069;DHT22;13887;57.196;-2.100;2023-12-22T12:48:03;5.60;85.59
22069;DHT22;13887;57.196;-2.100;2023-12-22T12:50:34;5.55;85.44
22069;DHT22;13887;57.196;-2.100;2023-12-22T12:53:02;5.57;85.38
22069;DHT22;13887;57.196;-2.100;2023-12-22T12:55:30;5.60;85.33
22069;DHT22;13887;57.196;-2.100;2023-12-22T12:57:57;5.52;85.40
22069;DHT22;13887;57.196;-2.100;2023-12-22T13:00:29;5.54;84.93
22069;DHT22;13887;57.196;-2.100;2023-12-22T13:03:02;5.54;85.05
22069;DHT22;13887;57.196;-2.100;2023-12-22T13:05:33;5.45;85.12
22069;DHT22;13887;57.196;-2.100;2023-12-22T13:08:12;5.51;84.74
22069;DHT22;13887;57.196;-2.100;2023-12-22T13:10:40;5.53;84.54
22069;DHT22;13887;57.196;-2.100;2023-12-22T13:13:08;5.41;84.78
22069;DHT22;13887;57.196;-2.100;2023-12-22T13:15:40;5.40;85.06
22069;DHT22;13887;57.196;-2.100;2023-12-22T13:18:07;5.36;84.75
22069;DHT22;13887;57.196;-2.100;2023-12-22T13:20:35;5.40;85.06
22069;DHT22;13887;57.196;-2.100;2023-12-22T13:23:03;5.45;84.58
22069;DHT22;13887;57.196;-2.100;2023-12-22T13:25:40;5.39;84.81
22069;DHT22;13887;57.196;-2.100;2023-12-22T13:28:08;5.46;84.59
22069;DHT22;13887;57.196;-2.100;2023-12-22T13:30:38;5.45;84.49
22069;DHT22;13887;57.196;-2.100;2023-12-22T13:33:09;5.45;84.65
22069;DHT22;13887;57.196;-2.100;2023-12-22T13:35:37;5.41;84.65
22069;DHT22;13887;57.196;-2.100;2023-12-22T13:38:09;5.38;84.52
22069;DHT22;13887;57.196;-2.100;2023-12-22T13:40:38;5.36;84.55
22069;DHT22;13887;57.196;-2.100;2023-12-22T13:43:06;5.39;84.66
22069;DHT22;13887;57.196;-2.100;2023-12-22T13:45:35;5.43;84.32
22069;DHT22;13887;57.196;-2.100;2023-12-22T13:48:03;5.47;84.35
22069;DHT22;13887;57.196;-2.100;2023-12-22T13:50:31;5.46;84.17
22069;DHT22;13887;57.196;-2.100;2023-12-22T13:53:07;5.40;84.35
22069;DHT22;13887;57.196;-2.100;2023-12-22T13:55:35;5.46;84.28
22069;DHT22;13887;57.196;-2.100;2023-12-22T13:58:06;5.46;84.20
22069;DHT22;13887;57.196;-2.100;2023-12-22T14:00:35;5.39;84.27
22069;DHT22;13887;57.196;-2.100;2023-12-22T14:03:02;5.39;84.16
22069;DHT22;13887;57.196;-2.100;2023-12-22T14:05:30;5.34;84.45
22069;DHT22;13887;57.196;-2.100;2023-12-22T14:08:03;5.40;84.29
22069;DHT22;13887;57.196;-2.100;2023-12-22T14:10:30;5.35;84.16
22069;DHT22;13887;57.196;-2.100;2023-12-22T14:12:58;5.39;83.99
22069;DHT22;13887;57.196;-2.100;2023-12-22T14:15:26;5.36;84.08
22069;DHT22;13887;57.196;-2.100;2023-12-22T14:18:10;5.38;84.08
22069;DHT22;13887;57.196;-2.100;2023-12-22T14:20:38;5.43;83.98
22069;DHT22;13887;57.196;-2.100;2023-12-22T14:23:06;5.39;84.00
22069;DHT22;13887;57.196;-2.100;2023-12-22T14:25:38;5.39;83.97
22069;DHT22;13887;57.196;-2.100;2023-12-22T14:28:05;5.34;84.19
22069;DHT22;13887;57.196;-2.100;2023-12-22T14:30:32;5.37;84.21
22069;DHT22;13887;57.196;-2.100;2023-12-22T14:33:00;5.41;84.12
22069;DHT22;13887;57.196;-2.100;2023-12-22T14:35:28;5.39;84.09
22069;DHT22;13887;57.196;-2.100;2023-12-22T14:37:55;5.42;83.95
22069;DHT22;13887;57.196;-2.100;2023-12-22T14:40:22;5.45;83.86
22069;DHT22;13887;57.196;-2.100;2023-12-22T14:42:51;5.48;83.95
22069;DHT22;13887;57.196;-2.100;2023-12-22T14:45:18;5.48;83.84
22069;DHT22;13887;57.196;-2.100;2023-12-22T14:47:45;5.49;83.79
22069;DHT22;13887;57.196;-2.100;2023-12-22T14:50:13;5.51;83.91
22069;DHT22;13887;57.196;-2.100;2023-12-22T14:52:40;5.50;83.88
22069;DHT22;13887;57.196;-2.100;2023-12-22T14:55:08;5.47;83.84
22069;DHT22;13887;57.196;-2.100;2023-12-22T14:57:35;5.38;83.68
22069;DHT22;13887;57.196;-2.100;2023-12-22T15:00:04;5.36;83.77
22069;DHT22;13887;57.196;-2.100;2023-12-22T15:02:31;5.28;83.68
22069;DHT22;13887;57.196;-2.100;2023-12-22T15:05:01;5.26;83.42
22069;DHT22;13887;57.196;-2.100;2023-12-22T15:07:29;5.23;83.11
22069;DHT22;13887;57.196;-2.100;2023-12-22T15:09:56;5.20;83.65
22069;DHT22;13887;57.196;-2.100;2023-12-22T15:12:23;5.23;83.36
22069;DHT22;13887;57.196;-2.100;2023-12-22T15:14:51;5.23;83.29
22069;DHT22;13887;57.196;-2.100;2023-12-22T15:17:19;5.22;83.23
22069;DHT22;13887;57.196;-2.100;2023-12-22T15:19:46;5.22;82.84
22069;DHT22;13887;57.196;-2.100;2023-12-22T15:22:13;5.22;83.27
22069;DHT22;13887;57.196;-2.100;2023-12-22T15:24:41;5.22;83.10
22069;DHT22;13887;57.196;-2.100;2023-12-22T15:27:11;5.19;83.07
22069;DHT22;13887;57.196;-2.100;2023-12-22T15:29:39;5.18;83.09
22069;DHT22;13887;57.196;-2.100;2023-12-22T15:32:06;5.15;83.08
22069;DHT22;13887;57.196;-2.100;2023-12-22T15:34:34;5.12;83.05
22069;DHT22;13887;57.196;-2.100;2023-12-22T15:37:01;5.11;82.94
22069;DHT22;13887;57.196;-2.100;2023-12-22T15:39:29;5.15;82.72
22069;DHT22;13887;57.196;-2.100;2023-12-22T15:41:58;5.12;82.66